To NAV CANADA Home Page Login to a new session Search on AWWS site Feedback and Comments Disclaimer Vers la page française équivalente Tips FAQ What's new on the site To the Forecasts and Observations / NOTAM section To "File a Flight Plan" website Publications and other links Update of the User's profile FIC Telephone Numbers My Weather Data Folder Route Weather Data Regional Weather Data Local Weather Data To the Forecasts and Observations / NOTAM section
Request Generated 08/22/2017 at 01:44:14 UTC . Weather information available at that time is displayed.

METAR/TAF

MONTREAL/ST-HUBERT/QC    (show WxCam)

METAR CYHU 220100Z AUTO 22006KT 9SM FEW250 24/18 A2997 RMK SLP151
DENSITY ALT 1100FT=
METAR CYHU 220000Z AUTO 22007KT 9SM CLR 26/18 A2996 RMK SLP146
DENSITY ALT 1200FT=
METAR CYHU 212300Z AUTO 24009G16KT 9SM CLR 26/18 A2996 RMK SLP148
DENSITY ALT 1300FT=

TAF CYHU 212338Z 2200/2224 24010KT P6SM FEW250
BECMG 2209/2211 16008KT
BECMG 2216/2218 17015G25KT
FM221900 27015G25KT 4SM SHRA BKN050 OVC120 TEMPO 2219/2222
VRB25G40KT 1SM +TSRA BKN015 OVC025CB PROB30 2219/2221 VRB35G55KT
1/2SM +TSGRRA BKN008 OVC020CB
FM222200 23015KT P6SM -SHRA FEW006 OVC015
RMK FCST BASED ON AUTO OBS. NXT FCST BY 220600Z=
Your time UTC time
Weather data provided by Environment Canada and NAV CANADA